createdAt,value
2019-05-21T00:01:55.547Z,14.64
2019-05-21T00:04:28.152Z,14.56
2019-05-21T00:06:56.018Z,14.51
2019-05-21T00:09:25.393Z,14.54
2019-05-21T00:11:54.822Z,14.51
2019-05-21T00:14:24.287Z,14.44
2019-05-21T00:16:53.666Z,14.40
2019-05-21T00:19:23.053Z,14.35
2019-05-21T00:21:52.531Z,14.30
2019-05-21T00:24:22.055Z,14.26
2019-05-21T00:26:51.494Z,14.25
2019-05-21T00:29:57.281Z,14.26
2019-05-21T00:33:03.830Z,14.25
2019-05-21T00:36:09.295Z,14.25
2019-05-21T00:39:15.125Z,14.25
2019-05-21T00:42:01.782Z,14.28
2019-05-21T00:44:34.177Z,14.29
2019-05-21T00:47:04.706Z,14.29
2019-05-21T00:49:34.444Z,14.27
2019-05-21T00:52:08.593Z,14.25
2019-05-21T00:54:35.655Z,14.22
2019-05-21T00:57:05.586Z,14.22
2019-05-21T00:59:37.816Z,14.20
2019-05-21T01:02:07.170Z,14.18
2019-05-21T01:04:36.519Z,14.15
2019-05-21T01:07:05.937Z,14.11
2019-05-21T01:09:35.294Z,14.06
2019-05-21T01:12:04.698Z,14.01
2019-05-21T01:14:37.132Z,13.98
2019-05-21T01:17:06.507Z,13.98
2019-05-21T01:19:35.873Z,13.94
2019-05-21T01:22:05.460Z,13.90
2019-05-21T01:24:34.777Z,13.86
2019-05-21T01:27:04.096Z,13.81
2019-05-21T01:29:33.471Z,13.78
2019-05-21T01:32:03.410Z,13.75
2019-05-21T01:34:33.254Z,13.68
2019-05-21T01:37:03.019Z,13.66
2019-05-21T01:39:32.458Z,13.63
2019-05-21T01:42:01.859Z,13.60
2019-05-21T01:44:41.877Z,13.57
2019-05-21T01:47:11.192Z,13.53
2019-05-21T01:49:40.510Z,13.49
2019-05-21T01:52:09.884Z,13.47
2019-05-21T01:54:39.195Z,13.44
2019-05-21T01:57:08.552Z,13.39
2019-05-21T01:59:43.582Z,13.36
2019-05-21T02:02:13.102Z,13.32
2019-05-21T02:04:42.456Z,13.32
2019-05-21T02:07:11.739Z,13.32
2019-05-21T02:09:59.462Z,13.28
2019-05-21T02:12:28.895Z,13.28
2019-05-21T02:15:00.661Z,13.25
2019-05-21T02:17:29.966Z,13.23
2019-05-21T02:19:59.265Z,13.19
2019-05-21T02:22:28.617Z,13.18
2019-05-21T02:24:57.963Z,13.15
2019-05-21T02:27:27.294Z,13.11
2019-05-21T02:29:56.655Z,13.10
2019-05-21T02:32:26.053Z,13.06
2019-05-21T02:34:55.404Z,13.00
2019-05-21T02:37:24.635Z,12.99
2019-05-21T02:39:53.963Z,12.98
2019-05-21T02:42:23.325Z,12.93
2019-05-21T02:44:54.115Z,12.94
2019-05-21T02:47:23.746Z,12.93
2019-05-21T02:49:53.099Z,12.91
2019-05-21T02:52:22.523Z,12.91
2019-05-21T02:54:51.998Z,12.92
2019-05-21T02:57:21.311Z,12.92
2019-05-21T02:59:52.326Z,12.91
2019-05-21T03:02:23.292Z,12.89
2019-05-21T03:04:52.641Z,12.86
2019-05-21T03:07:25.209Z,12.86
2019-05-21T03:09:53.167Z,12.88
2019-05-21T03:12:22.558Z,12.88
2019-05-21T03:14:51.921Z,12.88
2019-05-21T03:17:21.311Z,12.88
2019-05-21T03:19:50.674Z,12.88
2019-05-21T03:22:20.024Z,12.85
2019-05-21T03:24:49.421Z,12.86
2019-05-21T03:27:18.746Z,12.85
2019-05-21T03:29:54.097Z,12.88
2019-05-21T03:32:23.511Z,12.90
2019-05-21T03:34:52.903Z,12.94
2019-05-21T03:37:22.297Z,13.00
2019-05-21T03:39:51.882Z,13.08
2019-05-21T03:42:21.177Z,13.19
2019-05-21T03:45:00.261Z,13.30
2019-05-21T03:47:29.151Z,13.39
2019-05-21T03:49:58.701Z,13.49
2019-05-21T03:52:28.028Z,13.56
2019-05-21T03:54:57.240Z,13.56
2019-05-21T03:57:26.539Z,13.58
2019-05-21T03:59:57.562Z,13.69
2019-05-21T04:02:26.931Z,13.77
2019-05-21T04:04:56.223Z,13.86
2019-05-21T04:07:25.674Z,13.98
2019-05-21T04:09:55.133Z,14.02
2019-05-21T04:12:24.485Z,13.97
2019-05-21T04:15:01.585Z,14.09
2019-05-21T04:17:34.779Z,14.27
2019-05-21T04:20:04.663Z,14.35
2019-05-21T04:22:34.035Z,14.50
2019-05-21T04:25:03.517Z,14.66
2019-05-21T04:27:32.869Z,14.81
2019-05-21T04:30:02.179Z,14.91
2019-05-21T04:32:31.472Z,15.02
2019-05-21T04:35:00.808Z,15.09
2019-05-21T04:37:30.247Z,15.17
2019-05-21T04:39:59.539Z,15.28
2019-05-21T04:42:28.925Z,15.47
2019-05-21T04:45:08.779Z,15.56
2019-05-21T04:47:38.144Z,15.63
2019-05-21T04:50:07.703Z,15.55
2019-05-21T04:52:37.119Z,15.62
2019-05-21T04:55:07.039Z,15.70
2019-05-21T04:57:37.446Z,15.80
2019-05-21T05:00:07.422Z,15.95
2019-05-21T05:02:36.965Z,16.06
2019-05-21T05:05:06.614Z,16.16
2019-05-21T05:07:36.006Z,16.19
2019-05-21T05:10:07.058Z,16.30
2019-05-21T05:12:36.414Z,16.46
2019-05-21T05:15:06.917Z,16.62
2019-05-21T05:17:36.145Z,16.72
2019-05-21T05:20:06.402Z,16.93
2019-05-21T05:22:35.978Z,17.02
2019-05-21T05:25:07.274Z,17.00
2019-05-21T05:27:36.560Z,17.13
2019-05-21T05:30:08.215Z,17.24
2019-05-21T05:32:37.496Z,17.30
2019-05-21T05:35:07.264Z,17.33
2019-05-21T05:37:44.287Z,17.44
2019-05-21T05:40:09.419Z,17.50
2019-05-21T05:42:38.862Z,17.50
2019-05-21T05:45:08.852Z,17.57
2019-05-21T05:47:38.235Z,17.71
2019-05-21T05:50:13.465Z,17.96
2019-05-21T05:52:42.777Z,18.00
2019-05-21T05:55:12.532Z,18.11
2019-05-21T05:57:41.933Z,17.98
2019-05-21T06:00:13.425Z,18.16
2019-05-21T06:02:42.859Z,18.27
2019-05-21T06:05:12.654Z,18.46
2019-05-21T06:07:42.109Z,18.48
2019-05-21T06:10:11.868Z,18.10
2019-05-21T06:12:41.259Z,17.84
2019-05-21T06:15:12.448Z,17.86
2019-05-21T06:17:41.797Z,18.24
2019-05-21T06:20:12.012Z,18.36
2019-05-21T06:22:41.303Z,18.36
2019-05-21T06:25:11.548Z,18.48
2019-05-21T06:27:41.137Z,18.39
2019-05-21T06:30:11.396Z,18.70
2019-05-21T06:32:40.698Z,18.93
2019-05-21T06:35:10.173Z,19.02
2019-05-21T06:37:39.397Z,19.14
2019-05-21T06:40:09.093Z,19.20
2019-05-21T06:42:38.328Z,19.32
2019-05-21T06:45:08.524Z,19.41
2019-05-21T06:47:37.958Z,19.62
2019-05-21T06:50:07.528Z,19.92
2019-05-21T06:52:36.819Z,20.11
2019-05-21T06:55:07.100Z,20.04
2019-05-21T06:57:36.448Z,20.31
2019-05-21T07:00:09.232Z,20.34
2019-05-21T07:02:38.685Z,20.47
2019-05-21T07:05:08.636Z,20.61
2019-05-21T07:07:38.820Z,20.68
2019-05-21T07:10:08.700Z,20.44
2019-05-21T07:12:38.069Z,20.39
2019-05-21T07:15:08.035Z,20.74
2019-05-21T07:17:37.337Z,20.66
2019-05-21T07:20:12.553Z,20.86
2019-05-21T07:22:42.173Z,20.95
2019-05-21T07:25:11.627Z,21.18
2019-05-21T07:27:40.997Z,21.02
2019-05-21T07:30:10.521Z,21.01
2019-05-21T07:32:40.119Z,20.85
2019-05-21T07:35:10.221Z,21.11
2019-05-21T07:37:39.583Z,21.39
2019-05-21T07:40:10.203Z,21.22
2019-05-21T07:42:39.523Z,21.44
2019-05-21T07:45:09.445Z,21.11
2019-05-21T07:47:38.743Z,21.01
2019-05-21T07:50:08.583Z,21.17
2019-05-21T07:52:37.988Z,21.58
2019-05-21T07:55:07.664Z,21.90
2019-05-21T07:57:37.029Z,21.56
2019-05-21T08:00:08.519Z,21.69
2019-05-21T08:02:37.885Z,21.88
2019-05-21T08:05:07.745Z,21.84
2019-05-21T08:07:37.152Z,21.65
2019-05-21T08:10:08.318Z,21.78
2019-05-21T08:12:39.705Z,21.83
2019-05-21T08:15:10.019Z,22.31
2019-05-21T08:17:39.382Z,22.12
2019-05-21T08:20:11.076Z,22.14
2019-05-21T08:22:40.706Z,22.28
2019-05-21T08:25:14.128Z,22.43
2019-05-21T08:27:41.511Z,22.77
2019-05-21T08:30:13.278Z,22.96
2019-05-21T08:32:42.550Z,23.17
2019-05-21T08:35:12.269Z,22.67
2019-05-21T08:37:41.670Z,23.03
2019-05-21T08:40:11.770Z,22.66
2019-05-21T08:42:41.396Z,22.64
2019-05-21T08:45:11.751Z,22.41
2019-05-21T08:47:41.119Z,23.09
2019-05-21T08:50:11.297Z,23.28
2019-05-21T08:52:40.653Z,23.80
2019-05-21T08:55:10.210Z,23.86
2019-05-21T08:57:39.577Z,23.03
2019-05-21T09:00:17.306Z,22.42
2019-05-21T09:02:46.704Z,23.05
2019-05-21T09:05:16.657Z,23.00
2019-05-21T09:07:52.341Z,23.35
2019-05-21T09:10:17.340Z,23.62
2019-05-21T09:12:46.714Z,23.76
2019-05-21T09:15:16.683Z,22.42
2019-05-21T09:17:46.035Z,23.00
2019-05-21T09:20:16.205Z,24.06
2019-05-21T09:22:45.674Z,23.39
2019-05-21T09:25:16.235Z,23.40
2019-05-21T09:27:45.610Z,24.34
2019-05-21T09:30:17.404Z,25.00
2019-05-21T09:32:46.822Z,24.70
2019-05-21T09:35:16.615Z,24.22
2019-05-21T09:37:48.173Z,24.38
2019-05-21T09:40:21.147Z,24.74
2019-05-21T09:42:50.544Z,24.48
2019-05-21T09:45:20.168Z,25.06
2019-05-21T09:47:49.522Z,24.97
2019-05-21T09:50:21.409Z,23.96
2019-05-21T09:52:51.788Z,24.42
2019-05-21T09:55:21.472Z,24.92
2019-05-21T09:58:01.259Z,25.01
2019-05-21T10:00:48.720Z,25.48
2019-05-21T10:03:25.615Z,25.95
2019-05-21T10:05:55.107Z,26.13
2019-05-21T10:08:24.477Z,25.04
2019-05-21T10:10:53.876Z,24.96
2019-05-21T10:13:23.127Z,25.88
2019-05-21T10:15:52.572Z,25.98
2019-05-21T10:18:21.978Z,25.33
2019-05-21T10:20:51.346Z,25.23
2019-05-21T10:23:20.656Z,25.84
2019-05-21T10:25:50.121Z,24.98
2019-05-21T10:28:19.435Z,24.46
2019-05-21T10:30:48.754Z,24.27
2019-05-21T10:33:18.253Z,24.53
2019-05-21T10:35:47.630Z,24.84
2019-05-21T10:38:17.188Z,25.61
2019-05-21T10:40:46.600Z,25.82
2019-05-21T10:43:15.943Z,25.24
2019-05-21T10:45:45.538Z,24.77
2019-05-21T10:48:14.946Z,24.02
2019-05-21T10:50:44.310Z,24.29
2019-05-21T10:53:13.740Z,24.44
2019-05-21T10:55:43.165Z,24.67
2019-05-21T10:58:12.696Z,25.43
2019-05-21T11:00:42.429Z,26.58
2019-05-21T11:03:16.427Z,26.49
2019-05-21T11:06:09.582Z,26.28
2019-05-21T11:08:29.611Z,25.99
2019-05-21T11:10:58.963Z,26.08
2019-05-21T11:13:28.265Z,25.11
2019-05-21T11:15:57.589Z,24.82
2019-05-21T11:18:27.028Z,25.51
2019-05-21T11:20:56.385Z,26.10
2019-05-21T11:23:25.734Z,25.45
2019-05-21T11:25:55.095Z,26.09
2019-05-21T11:28:24.450Z,27.04
2019-05-21T11:30:54.067Z,27.23
2019-05-21T11:33:23.357Z,25.82
2019-05-21T11:35:52.800Z,25.29
2019-05-21T11:38:22.203Z,25.28
2019-05-21T11:40:51.605Z,26.34
2019-05-21T11:43:20.995Z,26.31
2019-05-21T11:45:50.328Z,25.82
2019-05-21T11:48:19.690Z,25.76
2019-05-21T11:50:49.051Z,25.59
2019-05-21T11:53:18.398Z,25.04
2019-05-21T11:55:47.758Z,24.78
2019-05-21T11:58:17.109Z,24.43
2019-05-21T12:00:48.288Z,25.85
2019-05-21T12:03:17.792Z,26.34
2019-05-21T12:05:47.245Z,25.80
2019-05-21T12:08:16.570Z,25.20
2019-05-21T12:10:46.677Z,24.93
2019-05-21T12:13:20.199Z,25.17
2019-05-21T12:15:47.192Z,24.69
2019-05-21T12:18:16.582Z,24.60
2019-05-21T12:20:46.137Z,24.33
2019-05-21T12:23:15.535Z,24.31
2019-05-21T12:25:44.894Z,24.27
2019-05-21T12:28:14.223Z,24.52
2019-05-21T12:30:43.826Z,24.36
2019-05-21T12:33:13.182Z,24.21
2019-05-21T12:35:42.570Z,24.22
2019-05-21T12:38:12.200Z,24.38
2019-05-21T12:40:41.582Z,24.63
2019-05-21T12:43:11.867Z,24.39
2019-05-21T12:45:41.297Z,25.39
2019-05-21T12:48:11.179Z,25.98
2019-05-21T12:50:40.788Z,25.30
2019-05-21T12:53:10.627Z,25.31
2019-05-21T12:55:39.997Z,25.37
2019-05-21T12:58:09.392Z,26.15
2019-05-21T13:00:40.381Z,26.84
2019-05-21T13:03:09.738Z,26.64
2019-05-21T13:05:39.075Z,27.14
2019-05-21T13:08:08.386Z,26.67
2019-05-21T13:10:37.745Z,26.66
2019-05-21T13:13:07.500Z,26.50
2019-05-21T13:15:37.021Z,26.92
2019-05-21T13:18:06.462Z,27.34
2019-05-21T13:20:35.878Z,27.15
2019-05-21T13:23:05.242Z,26.96
2019-05-21T13:25:36.062Z,27.36
2019-05-21T13:28:05.764Z,27.34
2019-05-21T13:30:35.122Z,27.97
2019-05-21T13:33:04.898Z,28.12
2019-05-21T13:35:34.274Z,27.92
2019-05-21T13:38:03.830Z,28.36
2019-05-21T13:40:34.088Z,26.92
2019-05-21T13:43:03.579Z,26.11
2019-05-21T13:45:33.040Z,25.68
2019-05-21T13:48:02.455Z,25.38
2019-05-21T13:50:31.808Z,25.40
2019-05-21T13:53:01.196Z,25.16
2019-05-21T13:55:34.011Z,25.06
2019-05-21T13:58:01.783Z,24.95
2019-05-21T14:00:45.291Z,24.26
2019-05-21T14:03:14.726Z,24.25
2019-05-21T14:05:44.270Z,24.13
2019-05-21T14:08:13.898Z,23.88
2019-05-21T14:10:43.505Z,23.73
2019-05-21T14:13:12.892Z,23.64
2019-05-21T14:15:42.386Z,23.30
2019-05-21T14:18:12.034Z,22.94
2019-05-21T14:20:41.390Z,22.81
2019-05-21T14:23:10.788Z,22.42
2019-05-21T14:25:40.076Z,22.34
2019-05-21T14:28:09.429Z,22.17
2019-05-21T14:30:39.058Z,21.97
2019-05-21T14:33:08.268Z,21.69
2019-05-21T14:35:37.583Z,21.22
2019-05-21T14:38:06.990Z,20.65
2019-05-21T14:40:36.956Z,20.58
2019-05-21T14:43:06.311Z,20.72
2019-05-21T14:45:38.721Z,21.12
2019-05-21T14:48:08.019Z,21.42
2019-05-21T14:50:37.306Z,21.65
2019-05-21T14:53:06.705Z,21.99
2019-05-21T14:55:36.113Z,22.44
2019-05-21T14:58:05.475Z,23.12
2019-05-21T15:00:38.492Z,23.80
2019-05-21T15:03:23.910Z,24.06
2019-05-21T15:05:38.909Z,24.22
2019-05-21T15:08:09.697Z,24.37
2019-05-21T15:10:48.340Z,24.66
2019-05-21T15:13:10.154Z,24.75
2019-05-21T15:15:39.540Z,24.91
2019-05-21T15:18:08.912Z,24.83
2019-05-21T15:20:41.360Z,24.35
2019-05-21T15:23:10.843Z,24.03
2019-05-21T15:25:40.269Z,23.98
2019-05-21T15:28:09.968Z,23.52
2019-05-21T15:30:39.443Z,23.62
2019-05-21T15:33:08.799Z,23.95
2019-05-21T15:35:38.158Z,24.04
2019-05-21T15:38:07.556Z,23.78
2019-05-21T15:40:36.914Z,23.44
2019-05-21T15:43:06.271Z,23.03
2019-05-21T15:45:42.958Z,22.84
2019-05-21T15:48:12.324Z,22.63
2019-05-21T15:50:41.677Z,22.49
2019-05-21T15:53:11.078Z,22.43
2019-05-21T15:55:40.436Z,22.43
2019-05-21T15:58:09.728Z,22.25
2019-05-21T16:00:43.545Z,22.12
2019-05-21T16:03:13.031Z,21.92
2019-05-21T16:05:42.579Z,21.78
2019-05-21T16:08:11.988Z,21.72
2019-05-21T16:10:41.412Z,21.54
2019-05-21T16:13:10.703Z,21.35
2019-05-21T16:15:40.106Z,21.19
2019-05-21T16:18:09.907Z,21.15
2019-05-21T16:20:42.478Z,21.13
2019-05-21T16:23:10.360Z,21.13
2019-05-21T16:25:40.158Z,21.11
2019-05-21T16:28:09.628Z,20.97
2019-05-21T16:30:39.160Z,20.94
2019-05-21T16:33:08.601Z,20.85
2019-05-21T16:35:38.035Z,20.81
2019-05-21T16:38:07.991Z,20.68
2019-05-21T16:40:37.360Z,20.56
2019-05-21T16:43:07.120Z,20.51
2019-05-21T16:45:36.613Z,20.33
2019-05-21T16:48:06.360Z,20.34
2019-05-21T16:50:35.913Z,20.36
2019-05-21T16:53:05.495Z,20.16
2019-05-21T16:55:35.911Z,20.23
2019-05-21T16:58:05.311Z,20.22
2019-05-21T17:00:34.841Z,20.25
2019-05-21T17:03:04.296Z,20.24
2019-05-21T17:05:33.796Z,20.27
2019-05-21T17:08:03.505Z,20.13
2019-05-21T17:10:32.886Z,20.07
2019-05-21T17:13:02.297Z,19.95
2019-05-21T17:15:48.955Z,19.86
2019-05-21T17:18:18.293Z,19.70
2019-05-21T17:20:47.590Z,19.66
2019-05-21T17:23:16.953Z,19.66
2019-05-21T17:25:46.366Z,19.63
2019-05-21T17:28:15.748Z,19.60
2019-05-21T17:30:45.668Z,19.51
2019-05-21T17:33:15.140Z,19.42
2019-05-21T17:35:44.539Z,19.40
2019-05-21T17:38:13.916Z,19.38
2019-05-21T17:40:43.750Z,19.37
2019-05-21T17:43:13.152Z,19.30
2019-05-21T17:45:48.536Z,19.22
2019-05-21T17:48:17.907Z,19.19
2019-05-21T17:50:47.270Z,19.12
2019-05-21T17:53:16.672Z,19.11
2019-05-21T17:55:46.332Z,19.03
2019-05-21T17:58:15.715Z,19.00
2019-05-21T18:00:49.726Z,18.94
2019-05-21T18:03:19.150Z,18.90
2019-05-21T18:05:49.896Z,18.82
2019-05-21T18:08:20.186Z,18.79
2019-05-21T18:10:50.175Z,18.74
2019-05-21T18:13:21.022Z,18.70
2019-05-21T18:15:51.203Z,18.61
2019-05-21T18:18:20.973Z,18.58
2019-05-21T18:20:50.345Z,18.52
2019-05-21T18:23:19.972Z,18.47
2019-05-21T18:25:49.877Z,18.43
2019-05-21T18:28:19.305Z,18.38
2019-05-21T18:30:48.803Z,18.36
2019-05-21T18:33:18.177Z,18.32
2019-05-21T18:35:47.843Z,18.32
2019-05-21T18:38:17.645Z,18.27
2019-05-21T18:40:47.100Z,18.25
2019-05-21T18:43:16.488Z,18.23
2019-05-21T18:45:54.739Z,18.20
2019-05-21T18:48:24.206Z,18.17
2019-05-21T18:50:53.649Z,18.16
2019-05-21T18:53:23.886Z,18.13
2019-05-21T18:55:53.220Z,18.13
2019-05-21T18:58:22.603Z,18.12
2019-05-21T19:00:52.105Z,18.10
2019-05-21T19:03:28.810Z,18.07
2019-05-21T19:05:52.733Z,18.07
2019-05-21T19:08:22.209Z,18.05
2019-05-21T19:10:51.568Z,18.04
2019-05-21T19:13:21.184Z,18.03
2019-05-21T19:15:50.687Z,18.04
2019-05-21T19:18:20.231Z,18.05
2019-05-21T19:20:50.202Z,18.02
2019-05-21T19:23:20.386Z,18.01
2019-05-21T19:25:49.749Z,18.01
2019-05-21T19:28:19.222Z,18.01
2019-05-21T19:30:49.101Z,17.99
2019-05-21T19:33:18.666Z,17.99
2019-05-21T19:35:48.205Z,17.97
2019-05-21T19:38:18.183Z,17.98
2019-05-21T19:40:47.788Z,17.95
2019-05-21T19:43:17.405Z,17.93
2019-05-21T19:46:00.420Z,17.96
2019-05-21T19:48:30.123Z,17.92
2019-05-21T19:51:00.503Z,17.92
2019-05-21T19:53:31.111Z,17.93
2019-05-21T19:56:01.246Z,17.95
2019-05-21T19:58:31.222Z,17.95
2019-05-21T20:01:01.406Z,17.95
2019-05-21T20:03:31.644Z,17.95
2019-05-21T20:06:02.274Z,17.94
2019-05-21T20:08:31.746Z,17.92
2019-05-21T20:11:01.401Z,17.95
2019-05-21T20:13:32.905Z,17.92
2019-05-21T20:16:03.190Z,17.87
2019-05-21T20:18:32.873Z,17.82
2019-05-21T20:21:02.634Z,17.80
2019-05-21T20:23:32.656Z,17.80
2019-05-21T20:26:03.053Z,17.81
2019-05-21T20:28:32.659Z,17.82
2019-05-21T20:31:03.899Z,17.81
2019-05-21T20:33:35.169Z,17.78
2019-05-21T20:36:06.733Z,17.78
2019-05-21T20:38:37.120Z,17.76
2019-05-21T20:41:07.846Z,17.74
2019-05-21T20:43:37.454Z,17.72
2019-05-21T20:46:06.893Z,17.71
2019-05-21T20:48:37.606Z,17.71
2019-05-21T20:51:09.324Z,17.74
2019-05-21T20:53:38.697Z,17.68
2019-05-21T20:56:09.542Z,17.66
2019-05-21T20:58:40.787Z,17.63
2019-05-21T21:01:11.112Z,17.56
2019-05-21T21:03:41.755Z,17.48
2019-05-21T21:06:12.125Z,17.49
2019-05-21T21:08:42.199Z,17.44
2019-05-21T21:11:13.587Z,17.39
2019-05-21T21:13:44.863Z,17.35
2019-05-21T21:16:14.918Z,17.35
2019-05-21T21:18:44.937Z,17.36
2019-05-21T21:21:14.958Z,17.39
2019-05-21T21:23:44.541Z,17.36
2019-05-21T21:26:15.277Z,17.33
2019-05-21T21:28:44.885Z,17.31
2019-05-21T21:31:14.522Z,17.29
2019-05-21T21:33:45.136Z,17.24
2019-05-21T21:36:15.217Z,17.27
2019-05-21T21:38:44.919Z,17.28
2019-05-21T21:41:14.687Z,17.24
2019-05-21T21:43:44.179Z,17.19
2019-05-21T21:46:13.956Z,17.16
2019-05-21T21:48:45.528Z,17.16
2019-05-21T21:51:15.896Z,17.15
2019-05-21T21:53:45.657Z,17.10
2019-05-21T21:56:15.067Z,17.06
2019-05-21T21:58:44.859Z,17.00
2019-05-21T22:01:27.554Z,16.94
2019-05-21T22:04:05.614Z,16.88
2019-05-21T22:06:38.014Z,16.81
2019-05-21T22:09:09.363Z,16.81
2019-05-21T22:11:39.391Z,16.73
2019-05-21T22:14:09.701Z,16.68
2019-05-21T22:16:39.317Z,16.67
2019-05-21T22:19:12.056Z,16.62
2019-05-21T22:21:41.619Z,16.61
2019-05-21T22:24:11.131Z,16.58
2019-05-21T22:26:40.835Z,16.61
2019-05-21T22:29:11.261Z,16.65
2019-05-21T22:31:41.811Z,16.68
2019-05-21T22:34:11.381Z,16.69
2019-05-21T22:36:41.029Z,16.69
2019-05-21T22:39:15.323Z,16.63
2019-05-21T22:41:45.320Z,16.59
2019-05-21T22:44:15.168Z,16.55
2019-05-21T22:46:45.329Z,16.57
2019-05-21T22:49:14.701Z,16.58
2019-05-21T22:51:44.281Z,16.58
2019-05-21T22:54:14.032Z,16.56
2019-05-21T22:56:43.583Z,16.51
2019-05-21T22:59:13.356Z,16.50
2019-05-21T23:01:44.202Z,16.51
2019-05-21T23:04:14.337Z,16.50
2019-05-21T23:06:43.904Z,16.49
2019-05-21T23:09:13.279Z,16.50
2019-05-21T23:11:42.694Z,16.54
2019-05-21T23:14:12.857Z,16.55
2019-05-21T23:16:42.725Z,16.56
2019-05-21T23:19:13.299Z,16.59
2019-05-21T23:21:44.023Z,16.60
2019-05-21T23:24:15.062Z,16.61
2019-05-21T23:26:44.717Z,16.60
2019-05-21T23:29:15.034Z,16.58
2019-05-21T23:31:45.163Z,16.59
2019-05-21T23:34:16.531Z,16.60
2019-05-21T23:36:47.747Z,16.60
2019-05-21T23:39:18.723Z,16.59
2019-05-21T23:41:48.091Z,16.60
2019-05-21T23:44:17.860Z,16.63
2019-05-21T23:46:47.375Z,16.59
2019-05-21T23:49:16.802Z,16.59
2019-05-21T23:51:46.202Z,16.58
2019-05-21T23:54:15.831Z,16.59
2019-05-21T23:56:46.365Z,16.60
2019-05-21T23:59:15.934Z,16.60
